sensor_id;sensor_type;location;lat;lon;timestamp;pressure;altitude;pressure_sealevel;temperature;humidity
63622;BME280;49770;47.544;19.074;2022-12-07T05:16:53;100179.87;;;1.56;100.00
63622;BME280;49770;47.544;19.074;2022-12-07T05:19:56;100184.16;;;1.60;100.00
63622;BME280;49770;47.544;19.074;2022-12-07T05:22:59;100181.44;;;1.68;100.00
63622;BME280;49770;47.544;19.074;2022-12-07T05:26:02;100179.53;;;1.76;100.00
63622;BME280;49770;47.544;19.074;2022-12-07T05:29:05;100181.03;;;1.91;100.00
63622;BME280;49770;47.544;19.074;2022-12-07T05:32:08;100181.84;;;1.96;100.00
63622;BME280;49770;47.544;19.074;2022-12-07T05:35:10;100182.72;;;1.97;100.00
63622;BME280;49770;47.544;19.074;2022-12-07T05:38:13;100184.28;;;2.07;100.00
63622;BME280;49770;47.544;19.074;2022-12-07T05:41:18;100179.91;;;2.06;100.00
63622;BME280;49770;47.544;19.074;2022-12-07T05:44:41;100190.25;;;2.14;100.00
63622;BME280;49770;47.544;19.074;2022-12-07T05:47:43;100188.66;;;2.05;100.00
63622;BME280;49770;47.544;19.074;2022-12-07T05:50:50;100195.72;;;2.00;100.00
63622;BME280;49770;47.544;19.074;2022-12-07T05:53:53;100193.00;;;2.06;100.00
63622;BME280;49770;47.544;19.074;2022-12-07T05:56:56;100190.44;;;2.05;100.00
63622;BME280;49770;47.544;19.074;2022-12-07T05:59:59;100196.50;;;2.05;100.00
63622;BME280;49770;47.544;19.074;2022-12-07T06:03:02;100203.44;;;2.08;100.00
63622;BME280;49770;47.544;19.074;2022-12-07T06:06:05;100203.41;;;2.11;100.00
63622;BME280;49770;47.544;19.074;2022-12-07T06:09:08;100201.62;;;2.11;100.00
63622;BME280;49770;47.544;19.074;2022-12-07T06:12:11;100202.41;;;2.18;100.00
63622;BME280;49770;47.544;19.074;2022-12-07T06:15:36;100191.84;;;2.23;100.00
63622;BME280;49770;47.544;19.074;2022-12-07T06:18:39;100203.09;;;2.28;100.00
63622;BME280;49770;47.544;19.074;2022-12-07T06:21:42;100201.19;;;2.38;100.00
63622;BME280;49770;47.544;19.074;2022-12-07T06:24:45;100199.47;;;2.35;100.00
63622;BME280;49770;47.544;19.074;2022-12-07T06:27:48;100201.59;;;2.63;100.00
63622;BME280;49770;47.544;19.074;2022-12-07T06:31:00;100203.41;;;2.58;100.00
63622;BME280;49770;47.544;19.074;2022-12-07T06:34:15;100199.44;;;2.82;100.00
63622;BME280;49770;47.544;19.074;2022-12-07T06:37:18;100196.84;;;2.81;100.00
63622;BME280;49770;47.544;19.074;2022-12-07T06:40:20;100205.59;;;2.80;100.00
63622;BME280;49770;47.544;19.074;2022-12-07T06:43:23;100207.44;;;2.75;100.00
63622;BME280;49770;47.544;19.074;2022-12-07T06:46:26;100213.69;;;2.67;100.00
63622;BME280;49770;47.544;19.074;2022-12-07T06:49:29;100218.12;;;2.65;100.00
63622;BME280;49770;47.544;19.074;2022-12-07T06:52:31;100221.09;;;2.47;100.00
63622;BME280;49770;47.544;19.074;2022-12-07T06:55:34;100217.13;;;2.24;100.00
63622;BME280;49770;47.544;19.074;2022-12-07T06:58:40;100225.06;;;2.19;100.00
63622;BME280;49770;47.544;19.074;2022-12-07T07:01:42;100231.28;;;2.13;100.00
63622;BME280;49770;47.544;19.074;2022-12-07T07:04:45;100226.00;;;2.15;100.00
63622;BME280;49770;47.544;19.074;2022-12-07T07:07:50;100228.50;;;2.23;100.00
63622;BME280;49770;47.544;19.074;2022-12-07T07:11:13;100225.16;;;2.14;100.00
63622;BME280;49770;47.544;19.074;2022-12-07T07:14:16;100225.31;;;2.04;100.00
63622;BME280;49770;47.544;19.074;2022-12-07T07:17:24;100220.03;;;2.08;100.00
63622;BME280;49770;47.544;19.074;2022-12-07T07:20:26;100223.63;;;2.01;100.00
63622;BME280;49770;47.544;19.074;2022-12-07T07:23:29;100225.28;;;2.05;100.00
63622;BME280;49770;47.544;19.074;2022-12-07T07:26:32;100221.06;;;1.96;100.00
63622;BME280;49770;47.544;19.074;2022-12-07T07:29:35;100228.00;;;2.00;100.00
63622;BME280;49770;47.544;19.074;2022-12-07T07:32:38;100225.88;;;2.23;100.00
63622;BME280;49770;47.544;19.074;2022-12-07T07:35:41;100220.03;;;2.07;100.00
63622;BME280;49770;47.544;19.074;2022-12-07T07:38:44;100234.72;;;2.17;100.00
63622;BME280;49770;47.544;19.074;2022-12-07T07:41:48;100223.59;;;2.02;100.00
63622;BME280;49770;47.544;19.074;2022-12-07T07:44:54;100221.75;;;2.09;100.00
63622;BME280;49770;47.544;19.074;2022-12-07T07:47:57;100222.53;;;2.14;100.00
63622;BME280;49770;47.544;19.074;2022-12-07T07:51:00;100224.25;;;2.17;100.00
63622;BME280;49770;47.544;19.074;2022-12-07T07:54:03;100219.72;;;2.25;100.00
63622;BME280;49770;47.544;19.074;2022-12-07T07:57:05;100222.12;;;2.36;100.00
63622;BME280;49770;47.544;19.074;2022-12-07T08:00:11;100227.41;;;2.35;100.00
63622;BME280;49770;47.544;19.074;2022-12-07T08:03:14;100226.56;;;2.33;100.00
63622;BME280;49770;47.544;19.074;2022-12-07T08:06:17;100229.22;;;2.31;100.00
63622;BME280;49770;47.544;19.074;2022-12-07T08:09:20;100234.97;;;2.52;100.00
63622;BME280;49770;47.544;19.074;2022-12-07T08:12:23;100228.75;;;2.56;100.00
63622;BME280;49770;47.544;19.074;2022-12-07T08:15:29;100223.22;;;2.73;100.00
63622;BME280;49770;47.544;19.074;2022-12-07T08:18:40;100225.53;;;2.87;100.00
63622;BME280;49770;47.544;19.074;2022-12-07T08:21:43;100232.03;;;3.12;100.00
63622;BME280;49770;47.544;19.074;2022-12-07T08:24:45;100236.91;;;3.29;100.00
63622;BME280;49770;47.544;19.074;2022-12-07T08:27:49;100247.50;;;3.24;100.00
63622;BME280;49770;47.544;19.074;2022-12-07T08:30:58;100247.25;;;3.36;100.00
63622;BME280;49770;47.544;19.074;2022-12-07T08:34:01;100246.69;;;3.22;100.00
63622;BME280;49770;47.544;19.074;2022-12-07T08:37:04;100253.09;;;3.49;100.00
63622;BME280;49770;47.544;19.074;2022-12-07T08:40:09;100251.47;;;3.82;100.00
63622;BME280;49770;47.544;19.074;2022-12-07T08:43:12;100251.97;;;3.98;100.00
63622;BME280;49770;47.544;19.074;2022-12-07T08:46:19;100253.97;;;4.24;100.00
63622;BME280;49770;47.544;19.074;2022-12-07T08:49:33;100249.41;;;4.31;100.00
63622;BME280;49770;47.544;19.074;2022-12-07T08:52:37;100260.28;;;4.50;100.00
63622;BME280;49770;47.544;19.074;2022-12-07T08:55:39;100258.94;;;4.68;100.00
63622;BME280;49770;47.544;19.074;2022-12-07T08:58:42;100256.34;;;4.98;100.00
63622;BME280;49770;47.544;19.074;2022-12-07T09:01:46;100260.66;;;5.01;100.00
63622;BME280;49770;47.544;19.074;2022-12-07T09:04:49;100257.69;;;4.82;100.00
63622;BME280;49770;47.544;19.074;2022-12-07T09:07:55;100259.69;;;4.72;100.00
63622;BME280;49770;47.544;19.074;2022-12-07T09:10:59;100261.78;;;5.24;100.00
63622;BME280;49770;47.544;19.074;2022-12-07T09:14:02;100251.28;;;5.22;100.00
63622;BME280;49770;47.544;19.074;2022-12-07T09:17:10;100254.09;;;5.16;100.00
63622;BME280;49770;47.544;19.074;2022-12-07T09:20:13;100248.91;;;5.43;100.00
63622;BME280;49770;47.544;19.074;2022-12-07T09:23:18;100243.66;;;5.43;100.00
63622;BME280;49770;47.544;19.074;2022-12-07T09:26:20;100238.03;;;6.38;100.00
63622;BME280;49770;47.544;19.074;2022-12-07T09:29:29;100238.50;;;7.23;100.00
63622;BME280;49770;47.544;19.074;2022-12-07T09:32:32;100235.50;;;6.60;100.00
63622;BME280;49770;47.544;19.074;2022-12-07T09:35:35;100225.00;;;7.08;100.00
63622;BME280;49770;47.544;19.074;2022-12-07T09:38:38;100235.69;;;7.05;100.00
63622;BME280;49770;47.544;19.074;2022-12-07T09:41:43;100232.47;;;7.88;100.00
63622;BME280;49770;47.544;19.074;2022-12-07T09:44:46;100233.97;;;8.99;100.00
63622;BME280;49770;47.544;19.074;2022-12-07T09:47:49;100216.00;;;13.88;100.00
63622;BME280;49770;47.544;19.074;2022-12-07T09:50:54;100216.56;;;15.74;64.07
63622;BME280;49770;47.544;19.074;2022-12-07T09:53:59;100221.06;;;14.86;65.58
63622;BME280;49770;47.544;19.074;2022-12-07T09:57:02;100220.53;;;11.97;75.29
63622;BME280;49770;47.544;19.074;2022-12-07T10:00:14;100216.31;;;10.47;83.00
63622;BME280;49770;47.544;19.074;2022-12-07T10:03:17;100217.41;;;8.74;96.16
63622;BME280;49770;47.544;19.074;2022-12-07T10:06:20;100218.06;;;8.80;96.18
63622;BME280;49770;47.544;19.074;2022-12-07T10:09:23;100216.03;;;8.66;99.39
63622;BME280;49770;47.544;19.074;2022-12-07T10:12:27;100212.19;;;8.31;96.61
63622;BME280;49770;47.544;19.074;2022-12-07T10:15:48;100203.31;;;7.91;99.64
63622;BME280;49770;47.544;19.074;2022-12-07T10:18:51;100205.75;;;7.95;99.00
63622;BME280;49770;47.544;19.074;2022-12-07T10:22:13;100206.63;;;7.96;97.86
63622;BME280;49770;47.544;19.074;2022-12-07T10:25:19;100206.06;;;7.88;99.31
63622;BME280;49770;47.544;19.074;2022-12-07T10:28:27;100205.56;;;8.00;100.00
63622;BME280;49770;47.544;19.074;2022-12-07T10:31:44;100204.34;;;8.30;100.00
63622;BME280;49770;47.544;19.074;2022-12-07T10:34:47;100199.97;;;8.49;96.49
63622;BME280;49770;47.544;19.074;2022-12-07T10:38:15;100198.03;;;8.12;96.29
63622;BME280;49770;47.544;19.074;2022-12-07T10:41:19;100187.41;;;8.13;98.45
63622;BME280;49770;47.544;19.074;2022-12-07T10:44:25;100188.75;;;8.23;93.04
63622;BME280;49770;47.544;19.074;2022-12-07T10:54:38;100183.75;;;7.52;100.00
63622;BME280;49770;47.544;19.074;2022-12-07T10:58:12;100184.78;;;7.70;98.58
63622;BME280;49770;47.544;19.074;2022-12-07T11:11:38;100171.66;;;7.68;94.53
63622;BME280;49770;47.544;19.074;2022-12-07T11:21:43;100181.62;;;6.44;99.53
63622;BME280;49770;47.544;19.074;2022-12-07T11:28:23;100176.13;;;6.50;100.00
63622;BME280;49770;47.544;19.074;2022-12-07T11:31:40;100171.72;;;6.51;100.00
63622;BME280;49770;47.544;19.074;2022-12-07T11:37:56;100174.53;;;6.46;100.00
63622;BME280;49770;47.544;19.074;2022-12-07T11:41:04;100167.31;;;6.26;100.00
63622;BME280;49770;47.544;19.074;2022-12-07T11:48:02;100172.31;;;6.33;100.00
63622;BME280;49770;47.544;19.074;2022-12-07T11:51:10;100177.41;;;6.38;100.00
63622;BME280;49770;47.544;19.074;2022-12-07T11:54:20;100175.22;;;6.26;100.00
63622;BME280;49770;47.544;19.074;2022-12-07T11:57:30;100170.66;;;6.31;100.00
63622;BME280;49770;47.544;19.074;2022-12-07T12:00:36;100176.06;;;6.28;100.00
63622;BME280;49770;47.544;19.074;2022-12-07T12:03:44;100172.09;;;6.40;100.00
63622;BME280;49770;47.544;19.074;2022-12-07T12:06:54;100164.03;;;5.92;100.00
63622;BME280;49770;47.544;19.074;2022-12-07T12:10:02;100157.09;;;5.89;100.00
63622;BME280;49770;47.544;19.074;2022-12-07T12:17:16;100145.84;;;6.13;100.00
63622;BME280;49770;47.544;19.074;2022-12-07T12:23:58;100139.13;;;6.04;100.00
63622;BME280;49770;47.544;19.074;2022-12-07T12:27:06;100132.28;;;5.97;100.00
63622;BME280;49770;47.544;19.074;2022-12-07T12:30:46;100123.16;;;5.82;100.00
63622;BME280;49770;47.544;19.074;2022-12-07T12:34:30;100118.22;;;5.98;100.00
63622;BME280;49770;47.544;19.074;2022-12-07T12:40:40;100118.34;;;6.20;100.00
63622;BME280;49770;47.544;19.074;2022-12-07T12:43:52;100118.34;;;6.20;100.00
63622;BME280;49770;47.544;19.074;2022-12-07T12:47:03;100113.50;;;6.33;100.00
63622;BME280;49770;47.544;19.074;2022-12-07T12:50:28;100110.28;;;6.25;100.00
63622;BME280;49770;47.544;19.074;2022-12-07T12:53:31;100110.12;;;6.53;100.00
63622;BME280;49770;47.544;19.074;2022-12-07T13:02:55;100121.22;;;6.61;100.00
63622;BME280;49770;47.544;19.074;2022-12-07T13:09:28;100124.25;;;6.01;100.00
63622;BME280;49770;47.544;19.074;2022-12-07T13:12:32;100126.00;;;6.01;97.63
63622;BME280;49770;47.544;19.074;2022-12-07T13:15:46;100133.59;;;6.36;97.13
63622;BME280;49770;47.544;19.074;2022-12-07T13:18:51;100124.81;;;6.11;98.90
63622;BME280;49770;47.544;19.074;2022-12-07T13:21:54;100130.81;;;6.15;95.35
63622;BME280;49770;47.544;19.074;2022-12-07T13:25:05;100140.50;;;5.87;96.44
63622;BME280;49770;47.544;19.074;2022-12-07T13:28:17;100140.50;;;6.14;94.38
63622;BME280;49770;47.544;19.074;2022-12-07T13:34:36;100140.88;;;5.76;97.54
63622;BME280;49770;47.544;19.074;2022-12-07T13:37:39;100146.16;;;5.76;98.95
63622;BME280;49770;47.544;19.074;2022-12-07T13:40:42;100139.63;;;5.61;99.17
63622;BME280;49770;47.544;19.074;2022-12-07T13:47:09;100142.50;;;5.53;100.00
63622;BME280;49770;47.544;19.074;2022-12-07T13:50:26;100147.00;;;5.50;100.00
63622;BME280;49770;47.544;19.074;2022-12-07T13:53:30;100157.19;;;5.32;100.00
63622;BME280;49770;47.544;19.074;2022-12-07T13:56:34;100159.63;;;5.38;100.00
63622;BME280;49770;47.544;19.074;2022-12-07T13:59:47;100157.38;;;5.26;100.00
63622;BME280;49770;47.544;19.074;2022-12-07T14:02:58;100158.81;;;5.08;100.00
63622;BME280;49770;47.544;19.074;2022-12-07T14:06:14;100155.28;;;5.09;100.00
63622;BME280;49770;47.544;19.074;2022-12-07T14:09:28;100158.72;;;5.11;100.00
63622;BME280;49770;47.544;19.074;2022-12-07T14:12:36;100152.84;;;5.03;100.00
63622;BME280;49770;47.544;19.074;2022-12-07T14:15:38;100158.09;;;5.03;100.00
63622;BME280;49770;47.544;19.074;2022-12-07T14:18:41;100154.00;;;4.92;100.00
63622;BME280;49770;47.544;19.074;2022-12-07T14:21:44;100158.81;;;4.78;100.00
63622;BME280;49770;47.544;19.074;2022-12-07T14:24:47;100152.97;;;4.68;100.00
63622;BME280;49770;47.544;19.074;2022-12-07T14:27:57;100163.09;;;4.50;100.00
63622;BME280;49770;47.544;19.074;2022-12-07T14:31:01;100160.03;;;4.34;100.00
63622;BME280;49770;47.544;19.074;2022-12-07T14:34:04;100156.75;;;4.26;100.00
63622;BME280;49770;47.544;19.074;2022-12-07T14:37:09;100161.31;;;4.19;100.00
63622;BME280;49770;47.544;19.074;2022-12-07T14:40:14;100155.37;;;4.11;100.00
63622;BME280;49770;47.544;19.074;2022-12-07T14:43:18;100161.78;;;4.00;100.00
63622;BME280;49770;47.544;19.074;2022-12-07T14:46:22;100163.78;;;3.90;100.00
63622;BME280;49770;47.544;19.074;2022-12-07T14:49:25;100175.75;;;4.01;100.00
63622;BME280;49770;47.544;19.074;2022-12-07T14:52:36;100175.22;;;3.88;100.00
63622;BME280;49770;47.544;19.074;2022-12-07T14:55:58;100172.69;;;3.83;100.00
63622;BME280;49770;47.544;19.074;2022-12-07T14:59:01;100176.28;;;3.81;100.00
63622;BME280;49770;47.544;19.074;2022-12-07T15:02:05;100180.94;;;3.69;100.00
63622;BME280;49770;47.544;19.074;2022-12-07T15:05:08;100182.19;;;3.53;100.00
63622;BME280;49770;47.544;19.074;2022-12-07T15:08:17;100179.75;;;3.45;100.00
63622;BME280;49770;47.544;19.074;2022-12-07T15:11:20;100184.16;;;3.43;100.00
63622;BME280;49770;47.544;19.074;2022-12-07T15:14:23;100187.03;;;3.32;100.00
63622;BME280;49770;47.544;19.074;2022-12-07T15:17:25;100182.72;;;3.29;100.00
63622;BME280;49770;47.544;19.074;2022-12-07T15:20:34;100188.28;;;3.15;100.00
63622;BME280;49770;47.544;19.074;2022-12-07T15:23:36;100185.00;;;3.05;100.00
63622;BME280;49770;47.544;19.074;2022-12-07T15:26:39;100188.66;;;2.98;100.00
63622;BME280;49770;47.544;19.074;2022-12-07T15:29:42;100188.78;;;2.92;100.00
63622;BME280;49770;47.544;19.074;2022-12-07T15:32:49;100185.38;;;2.88;100.00
63622;BME280;49770;47.544;19.074;2022-12-07T15:35:52;100192.09;;;3.00;100.00
63622;BME280;49770;47.544;19.074;2022-12-07T15:38:55;100183.44;;;2.96;100.00
63622;BME280;49770;47.544;19.074;2022-12-07T15:42:15;100198.41;;;2.90;100.00
63622;BME280;49770;47.544;19.074;2022-12-07T15:45:17;100200.28;;;2.85;100.00
63622;BME280;49770;47.544;19.074;2022-12-07T15:48:20;100213.50;;;2.78;100.00
63622;BME280;49770;47.544;19.074;2022-12-07T15:51:31;100203.09;;;2.75;100.00
63622;BME280;49770;47.544;19.074;2022-12-07T15:54:33;100213.66;;;2.71;100.00
63622;BME280;49770;47.544;19.074;2022-12-07T15:57:37;100220.53;;;2.76;100.00
63622;BME280;49770;47.544;19.074;2022-12-07T16:00:40;100206.59;;;3.17;100.00
63622;BME280;49770;47.544;19.074;2022-12-07T16:03:44;100214.28;;;3.24;100.00
63622;BME280;49770;47.544;19.074;2022-12-07T16:06:47;100207.00;;;2.98;100.00
63622;BME280;49770;47.544;19.074;2022-12-07T16:09:50;100203.09;;;2.75;100.00
63622;BME280;49770;47.544;19.074;2022-12-07T16:12:52;100209.44;;;2.63;100.00
63622;BME280;49770;47.544;19.074;2022-12-07T16:15:57;100209.69;;;2.51;100.00
63622;BME280;49770;47.544;19.074;2022-12-07T16:18:59;100214.28;;;2.36;100.00
63622;BME280;49770;47.544;19.074;2022-12-07T16:22:03;100210.78;;;2.37;100.00
63622;BME280;49770;47.544;19.074;2022-12-07T16:25:06;100198.56;;;2.36;100.00
63622;BME280;49770;47.544;19.074;2022-12-07T16:28:09;100206.50;;;2.33;100.00
63622;BME280;49770;47.544;19.074;2022-12-07T16:31:14;100211.09;;;2.20;100.00
63622;BME280;49770;47.544;19.074;2022-12-07T16:34:18;100207.19;;;2.43;100.00
63622;BME280;49770;47.544;19.074;2022-12-07T16:37:21;100212.19;;;2.57;100.00
63622;BME280;49770;47.544;19.074;2022-12-07T16:40:24;100206.16;;;2.52;100.00
